createdAt,value
2023-01-19T00:02:06.411Z,9.27
2023-01-19T00:04:36.110Z,9.25
2023-01-19T00:07:09.323Z,8.43
2023-01-19T00:09:39.281Z,8.63
2023-01-19T00:12:07.460Z,7.40
2023-01-19T00:14:37.835Z,8.77
2023-01-19T00:17:13.212Z,8.00
2023-01-19T00:19:41.271Z,8.20
2023-01-19T00:22:12.077Z,8.23
2023-01-19T00:24:47.022Z,7.95
2023-01-19T00:27:14.103Z,8.27
2023-01-19T00:29:44.663Z,7.93
2023-01-19T00:32:17.417Z,8.23
2023-01-19T00:34:50.448Z,8.52
2023-01-19T00:39:51.817Z,7.50
2023-01-19T00:42:21.599Z,7.68
2023-01-19T00:44:54.611Z,7.50
2023-01-19T00:49:59.306Z,7.12
2023-01-19T00:52:27.217Z,6.35
2023-01-19T00:55:03.414Z,7.32
2023-01-19T00:57:33.813Z,7.35
2023-01-19T01:00:06.021Z,7.43
2023-01-19T01:02:39.554Z,6.70
2023-01-19T01:05:07.848Z,7.03
2023-01-19T01:07:39.727Z,7.20
2023-01-19T01:10:28.759Z,6.80
2023-01-19T01:13:22.336Z,7.45
2023-01-19T01:15:51.454Z,6.10
2023-01-19T01:18:22.186Z,6.50
2023-01-19T01:20:54.508Z,6.43
2023-01-19T01:25:49.850Z,5.82
2023-01-19T01:28:23.386Z,6.15
2023-01-19T01:30:57.991Z,6.12
2023-01-19T01:33:41.026Z,5.72
2023-01-19T01:36:11.302Z,5.97
2023-01-19T01:38:45.039Z,5.93
2023-01-19T01:41:13.022Z,5.93
2023-01-19T01:43:48.958Z,6.68
2023-01-19T01:46:22.474Z,5.72
2023-01-19T01:49:16.851Z,5.28
2023-01-19T01:51:49.167Z,5.43
2023-01-19T01:54:35.878Z,5.87
2023-01-19T01:57:07.315Z,5.07
2023-01-19T01:59:45.431Z,5.28
2023-01-19T02:02:19.332Z,5.60
2023-01-19T02:04:56.600Z,4.95
2023-01-19T02:07:46.596Z,5.15
2023-01-19T02:10:19.489Z,5.12
2023-01-19T02:12:49.273Z,4.72
2023-01-19T02:15:24.084Z,4.85
2023-01-19T02:17:53.792Z,4.68
2023-01-19T02:20:25.850Z,4.95
2023-01-19T02:23:03.861Z,4.62
2023-01-19T02:25:37.600Z,4.70
2023-01-19T02:28:08.871Z,4.50
2023-01-19T02:30:44.444Z,4.70
2023-01-19T02:33:14.473Z,4.70
2023-01-19T02:35:52.668Z,4.95
2023-01-19T02:38:26.750Z,4.57
2023-01-19T02:41:03.823Z,4.68
2023-01-19T02:43:31.330Z,4.43
2023-01-19T02:45:58.507Z,4.30
2023-01-19T02:48:28.855Z,3.80
2023-01-19T02:51:14.776Z,4.20
2023-01-19T02:54:05.617Z,3.80
2023-01-19T02:56:52.093Z,4.25
2023-01-19T02:59:50.046Z,3.92
2023-01-19T03:02:56.594Z,4.07
2023-01-19T03:05:53.791Z,3.95
2023-01-19T03:08:45.488Z,3.67
2023-01-19T03:11:17.786Z,3.47
2023-01-19T03:14:01.981Z,3.47
2023-01-19T03:16:51.772Z,4.00
2023-01-19T03:19:34.906Z,3.78
2023-01-19T03:22:29.632Z,3.45
2023-01-19T03:25:01.940Z,3.90
2023-01-19T03:27:33.934Z,3.62
2023-01-19T03:30:06.489Z,3.12
2023-01-19T03:32:39.659Z,3.60
2023-01-19T03:35:13.237Z,3.33
2023-01-19T03:37:45.606Z,3.40
2023-01-19T03:40:13.304Z,3.28
2023-01-19T03:42:44.594Z,3.05
2023-01-19T03:45:19.272Z,3.12
2023-01-19T03:47:55.646Z,3.35
2023-01-19T03:50:31.444Z,3.05
2023-01-19T03:53:12.551Z,3.15
2023-01-19T03:55:49.048Z,2.80
2023-01-19T03:58:19.231Z,3.00
2023-01-19T04:00:46.952Z,2.62
2023-01-19T04:03:21.204Z,2.70
2023-01-19T04:05:51.338Z,2.90
2023-01-19T04:08:21.159Z,3.10
2023-01-19T04:10:57.529Z,2.83
2023-01-19T04:13:30.567Z,2.95
2023-01-19T04:18:37.865Z,2.53
2023-01-19T04:21:12.391Z,2.90
2023-01-19T04:23:42.652Z,2.95
2023-01-19T04:26:10.205Z,2.35
2023-01-19T04:28:43.485Z,2.95
2023-01-19T04:31:11.149Z,2.83
2023-01-19T04:33:45.106Z,2.80
2023-01-19T04:36:19.001Z,2.47
2023-01-19T04:38:50.787Z,2.47
2023-01-19T04:41:27.399Z,2.72
2023-01-19T04:44:01.358Z,2.65
2023-01-19T04:46:29.203Z,2.70
2023-01-19T04:48:56.296Z,2.85
2023-01-19T04:51:30.036Z,2.78
2023-01-19T04:54:00.209Z,2.70
2023-01-19T04:56:36.809Z,2.42
2023-01-19T04:59:03.870Z,2.83
2023-01-19T05:01:35.195Z,2.45
2023-01-19T05:04:09.139Z,2.47
2023-01-19T05:06:36.306Z,2.58
2023-01-19T05:09:09.479Z,2.30
2023-01-19T05:11:36.903Z,2.40
2023-01-19T05:14:07.938Z,2.42
2023-01-19T05:16:38.672Z,2.17
2023-01-19T05:19:05.730Z,2.50
2023-01-19T05:21:32.850Z,2.50
2023-01-19T05:24:03.131Z,2.28
2023-01-19T05:26:30.223Z,2.60
2023-01-19T05:29:03.925Z,2.60
2023-01-19T05:31:31.741Z,2.28
2023-01-19T05:34:05.641Z,2.25
2023-01-19T05:36:33.255Z,2.12
2023-01-19T05:39:00.347Z,2.28
2023-01-19T05:41:27.466Z,2.17
2023-01-19T05:44:03.875Z,2.10
2023-01-19T05:46:33.894Z,2.35
2023-01-19T05:49:05.910Z,2.78
2023-01-19T05:51:39.676Z,2.15
2023-01-19T05:54:12.823Z,2.53
2023-01-19T05:59:13.462Z,2.80
2023-01-19T06:01:44.172Z,2.87
2023-01-19T06:04:11.508Z,2.80
2023-01-19T06:06:38.899Z,2.72
2023-01-19T06:09:09.312Z,2.83
2023-01-19T06:11:39.794Z,3.12
2023-01-19T06:14:15.590Z,3.50
2023-01-19T06:16:47.515Z,4.18
2023-01-19T06:19:17.672Z,3.60
2023-01-19T06:21:45.314Z,3.35
2023-01-19T06:24:19.883Z,2.90
2023-01-19T06:26:49.897Z,3.00
2023-01-19T06:29:21.509Z,2.72
2023-01-19T06:31:55.071Z,2.87
2023-01-19T06:34:22.437Z,3.10
2023-01-19T06:36:52.863Z,3.10
2023-01-19T06:39:19.648Z,2.80
2023-01-19T06:41:48.669Z,2.70
2023-01-19T06:44:15.602Z,2.72
2023-01-19T06:46:49.772Z,2.62
2023-01-19T06:49:19.832Z,2.90
2023-01-19T06:51:46.543Z,2.70
2023-01-19T06:54:16.377Z,2.58
2023-01-19T06:56:46.039Z,2.60
2023-01-19T06:59:16.086Z,2.60
2023-01-19T07:01:46.978Z,2.50
2023-01-19T07:04:14.089Z,3.00
2023-01-19T07:06:50.563Z,3.35
2023-01-19T07:09:20.666Z,2.80
2023-01-19T07:11:50.051Z,2.00
2023-01-19T07:14:16.952Z,2.10
2023-01-19T07:16:52.068Z,2.58
2023-01-19T07:19:19.042Z,2.40
2023-01-19T07:21:48.984Z,2.10
2023-01-19T07:24:18.810Z,2.42
2023-01-19T07:26:45.690Z,2.20
2023-01-19T07:29:19.076Z,2.55
2023-01-19T07:31:46.194Z,2.20
2023-01-19T07:34:14.682Z,2.60
2023-01-19T07:36:41.971Z,2.25
2023-01-19T07:39:12.506Z,2.28
2023-01-19T07:41:51.469Z,2.03
2023-01-19T07:44:26.598Z,2.40
2023-01-19T07:46:57.056Z,2.03
2023-01-19T07:49:24.998Z,3.53
2023-01-19T07:51:55.459Z,2.40
2023-01-19T07:54:31.634Z,2.30
2023-01-19T07:56:59.014Z,2.22
2023-01-19T07:59:31.836Z,2.12
2023-01-19T08:01:59.636Z,2.03
2023-01-19T08:04:33.293Z,2.35
2023-01-19T08:07:02.661Z,2.03
2023-01-19T08:09:30.126Z,2.25
2023-01-19T08:12:00.127Z,2.37
2023-01-19T08:14:27.594Z,2.00
2023-01-19T08:17:04.259Z,2.20
2023-01-19T08:19:32.769Z,2.47
2023-01-19T08:22:03.324Z,2.40
2023-01-19T08:24:33.765Z,1.60
2023-01-19T08:27:10.128Z,2.28
2023-01-19T08:29:43.672Z,1.80
2023-01-19T08:32:20.037Z,1.75
2023-01-19T08:34:47.173Z,2.10
2023-01-19T08:37:20.263Z,2.03
2023-01-19T08:42:22.396Z,2.10
2023-01-19T08:47:29.601Z,1.73
2023-01-19T08:49:59.053Z,1.70
2023-01-19T08:52:30.549Z,1.98
2023-01-19T08:55:01.365Z,1.92
2023-01-19T08:57:31.192Z,2.10
2023-01-19T09:00:01.375Z,2.12
2023-01-19T09:02:32.558Z,1.83
2023-01-19T09:05:06.287Z,2.00
2023-01-19T09:07:36.699Z,1.62
2023-01-19T09:10:05.447Z,1.80
2023-01-19T09:12:33.386Z,1.92
2023-01-19T09:15:05.958Z,1.77
2023-01-19T09:17:39.433Z,1.65
2023-01-19T09:20:12.339Z,2.15
2023-01-19T09:22:42.890Z,1.70
2023-01-19T09:25:12.736Z,1.50
2023-01-19T09:27:45.103Z,2.12
2023-01-19T09:30:16.239Z,1.90
2023-01-19T09:32:50.068Z,1.50
2023-01-19T09:35:20.857Z,1.60
2023-01-19T09:37:51.646Z,1.50
2023-01-19T09:40:24.485Z,1.65
2023-01-19T09:43:11.947Z,1.73
2023-01-19T09:45:53.268Z,1.70
2023-01-19T09:48:33.062Z,1.48
2023-01-19T09:51:04.440Z,2.00
2023-01-19T09:53:50.209Z,2.00
2023-01-19T09:56:24.298Z,1.45
2023-01-19T09:58:54.603Z,1.60
2023-01-19T10:01:30.290Z,1.92
2023-01-19T10:04:09.013Z,1.83
2023-01-19T10:06:42.553Z,1.60
2023-01-19T10:09:24.813Z,1.65
2023-01-19T10:12:35.756Z,1.85
2023-01-19T10:15:14.479Z,1.80
2023-01-19T10:18:03.299Z,1.40
2023-01-19T10:20:46.445Z,1.90
2023-01-19T10:23:43.919Z,1.70
2023-01-19T10:26:24.631Z,1.45
2023-01-19T10:29:16.464Z,1.50
2023-01-19T10:31:46.455Z,1.45
2023-01-19T10:34:19.799Z,1.92
2023-01-19T10:37:05.587Z,1.83
2023-01-19T10:39:39.779Z,1.95
2023-01-19T10:42:20.863Z,1.58
2023-01-19T10:44:51.017Z,1.92
2023-01-19T10:47:37.495Z,1.75
2023-01-19T10:50:29.247Z,1.90
2023-01-19T10:53:05.192Z,1.80
2023-01-19T10:55:34.878Z,1.85
2023-01-19T10:58:29.515Z,1.70
2023-01-19T11:01:14.385Z,1.90
2023-01-19T11:03:45.568Z,2.33
2023-01-19T11:06:22.450Z,1.95
2023-01-19T11:09:09.432Z,1.90
2023-01-19T11:11:48.102Z,1.98
2023-01-19T11:14:22.034Z,1.90
2023-01-19T11:16:55.558Z,1.87
2023-01-19T11:19:29.673Z,2.03
2023-01-19T11:22:18.139Z,1.95
2023-01-19T11:24:50.829Z,1.73
2023-01-19T11:27:21.511Z,1.98
2023-01-19T11:30:06.577Z,1.73
2023-01-19T11:32:43.123Z,1.95
2023-01-19T11:35:40.244Z,1.90
2023-01-19T11:38:25.001Z,1.90
2023-01-19T11:41:01.266Z,2.12
2023-01-19T11:43:43.550Z,1.77
2023-01-19T11:46:16.751Z,1.70
2023-01-19T11:48:50.007Z,1.45
2023-01-19T11:51:23.630Z,1.90
2023-01-19T11:53:56.940Z,1.52
2023-01-19T11:56:31.558Z,1.90
2023-01-19T11:59:01.852Z,1.42
2023-01-19T12:01:34.823Z,1.70
2023-01-19T12:06:55.866Z,1.40
2023-01-19T12:09:37.025Z,1.50
2023-01-19T12:12:25.875Z,1.55
2023-01-19T12:15:15.173Z,1.60
2023-01-19T12:17:51.198Z,1.52
2023-01-19T12:20:32.252Z,1.55
2023-01-19T12:23:25.246Z,1.80
2023-01-19T12:26:24.934Z,1.60
2023-01-19T12:29:00.094Z,1.60
2023-01-19T12:31:28.243Z,1.60
2023-01-19T12:33:58.636Z,1.60
2023-01-19T12:36:40.705Z,1.70
2023-01-19T12:39:22.925Z,1.58
2023-01-19T12:42:17.041Z,1.87
2023-01-19T12:44:50.044Z,1.52
2023-01-19T12:50:00.256Z,1.80
2023-01-19T12:52:46.276Z,1.60
2023-01-19T12:55:18.210Z,1.65
2023-01-19T12:58:12.522Z,1.55
2023-01-19T13:01:14.174Z,1.87
2023-01-19T13:03:58.803Z,1.65
2023-01-19T13:06:58.380Z,1.83
2023-01-19T13:09:38.384Z,1.37
2023-01-19T13:12:14.793Z,1.90
2023-01-19T13:14:45.036Z,1.83
2023-01-19T13:17:35.991Z,2.00
2023-01-19T13:20:22.790Z,1.60
2023-01-19T13:23:21.068Z,1.85
2023-01-19T13:25:52.962Z,1.90
2023-01-19T13:28:30.988Z,1.60
2023-01-19T13:31:00.260Z,1.73
2023-01-19T13:33:40.800Z,2.17
2023-01-19T13:36:20.290Z,1.73
2023-01-19T13:38:56.043Z,1.85
2023-01-19T13:41:35.348Z,2.35
2023-01-19T13:44:23.803Z,2.33
2023-01-19T13:46:52.104Z,2.75
2023-01-19T13:49:28.258Z,2.47
2023-01-19T13:52:16.740Z,2.75
2023-01-19T13:54:53.634Z,3.17
2023-01-19T13:57:40.684Z,3.85
2023-01-19T14:00:11.169Z,3.12
2023-01-19T14:02:51.850Z,2.70
2023-01-19T14:05:39.934Z,2.47
2023-01-19T14:08:09.901Z,2.62
2023-01-19T14:10:48.130Z,2.80
2023-01-19T14:13:36.033Z,2.53
2023-01-19T14:16:20.616Z,2.53
2023-01-19T14:18:59.760Z,2.80
2023-01-19T14:21:43.139Z,2.62
2023-01-19T14:24:22.935Z,2.53
2023-01-19T14:27:25.081Z,2.30
2023-01-19T14:29:53.049Z,2.50
2023-01-19T14:32:24.428Z,2.08
2023-01-19T14:34:57.293Z,2.25
2023-01-19T14:37:32.748Z,2.37
2023-01-19T14:40:17.423Z,2.10
2023-01-19T14:42:53.255Z,2.05
2023-01-19T14:45:30.336Z,2.10
2023-01-19T14:48:18.830Z,2.00
2023-01-19T14:51:02.369Z,2.70
2023-01-19T14:53:36.918Z,2.35
2023-01-19T14:56:07.316Z,1.95
2023-01-19T14:58:40.793Z,2.25
2023-01-19T15:01:07.854Z,2.55
2023-01-19T15:03:45.826Z,1.90
2023-01-19T15:06:19.613Z,1.90
2023-01-19T15:08:50.907Z,1.90
2023-01-19T15:11:26.889Z,2.33
2023-01-19T15:13:57.891Z,1.62
2023-01-19T15:16:30.452Z,1.80
2023-01-19T15:19:00.525Z,2.00
2023-01-19T15:21:33.373Z,2.03
2023-01-19T15:24:00.785Z,3.35
2023-01-19T15:26:30.502Z,2.25
2023-01-19T15:29:01.180Z,1.65
2023-01-19T15:31:28.147Z,2.40
2023-01-19T15:34:04.079Z,1.65
2023-01-19T15:36:33.623Z,1.90
2023-01-19T15:39:00.787Z,1.90
2023-01-19T15:41:32.943Z,1.70
2023-01-19T15:44:06.827Z,1.90
2023-01-19T15:46:37.488Z,1.70
2023-01-19T15:49:07.931Z,1.70
2023-01-19T15:51:41.139Z,1.85
2023-01-19T15:54:14.291Z,1.90
2023-01-19T15:56:44.853Z,1.90
2023-01-19T15:59:15.322Z,2.35
2023-01-19T16:01:48.709Z,1.98
2023-01-19T16:04:21.895Z,2.10
2023-01-19T16:06:49.086Z,2.37
2023-01-19T16:09:21.841Z,1.83
2023-01-19T16:14:25.562Z,1.80
2023-01-19T16:16:55.137Z,1.67
2023-01-19T16:19:28.219Z,1.60
2023-01-19T16:24:24.558Z,1.67
2023-01-19T16:26:54.824Z,2.08
2023-01-19T16:29:22.154Z,1.90
2023-01-19T16:31:49.660Z,2.00
2023-01-19T16:34:19.812Z,1.80
2023-01-19T16:36:46.682Z,1.80
2023-01-19T16:39:15.873Z,1.87
2023-01-19T16:41:43.984Z,1.60
2023-01-19T16:44:12.920Z,2.62
2023-01-19T16:46:42.123Z,1.80
2023-01-19T16:49:20.730Z,1.50
2023-01-19T16:51:48.985Z,1.98
2023-01-19T16:54:22.284Z,1.77
2023-01-19T16:56:53.379Z,1.77
2023-01-19T16:59:24.128Z,2.10
2023-01-19T17:01:58.136Z,1.90
2023-01-19T17:04:28.737Z,1.77
2023-01-19T17:07:02.504Z,2.08
2023-01-19T17:09:35.387Z,2.08
2023-01-19T17:12:08.511Z,2.75
2023-01-19T17:17:09.081Z,2.12
2023-01-19T17:19:40.067Z,2.03
2023-01-19T17:22:10.385Z,2.00
2023-01-19T17:24:42.975Z,1.90
2023-01-19T17:27:11.182Z,1.80
2023-01-19T17:29:44.381Z,2.10
2023-01-19T17:32:18.513Z,1.98
2023-01-19T17:34:49.655Z,2.30
2023-01-19T17:37:26.157Z,1.70
2023-01-19T17:39:56.260Z,1.90
2023-01-19T17:42:26.959Z,2.20
2023-01-19T17:44:59.625Z,2.08
2023-01-19T17:47:29.990Z,2.10
2023-01-19T17:50:00.502Z,1.90
2023-01-19T17:52:34.429Z,1.98
2023-01-19T17:55:04.580Z,2.10
2023-01-19T17:57:38.069Z,1.80
2023-01-19T18:00:09.886Z,2.20
2023-01-19T18:02:40.509Z,2.08
2023-01-19T18:05:11.749Z,2.12
2023-01-19T18:07:43.207Z,1.90
2023-01-19T18:10:11.648Z,1.92
2023-01-19T18:12:39.154Z,2.08
2023-01-19T18:15:10.983Z,2.10
2023-01-19T18:17:38.280Z,1.85
2023-01-19T18:20:06.862Z,1.95
2023-01-19T18:22:37.371Z,2.30
2023-01-19T18:25:04.578Z,1.90
2023-01-19T18:27:34.905Z,2.62
2023-01-19T18:30:01.862Z,2.35
2023-01-19T18:32:29.116Z,2.22
2023-01-19T18:34:56.204Z,2.20
2023-01-19T18:37:25.603Z,2.03
2023-01-19T18:39:52.665Z,2.30
2023-01-19T18:42:19.591Z,2.10
2023-01-19T18:44:57.269Z,2.00
2023-01-19T18:47:24.366Z,2.00
2023-01-19T18:49:51.167Z,1.85
2023-01-19T18:52:18.515Z,2.50
2023-01-19T18:54:45.466Z,2.53
2023-01-19T18:57:12.384Z,2.40
2023-01-19T18:59:42.577Z,2.30
2023-01-19T19:02:12.010Z,2.20
2023-01-19T19:04:42.414Z,2.25
2023-01-19T19:07:12.556Z,2.33
2023-01-19T19:09:39.498Z,2.45
2023-01-19T19:12:09.760Z,2.65
2023-01-19T19:14:36.697Z,1.98
2023-01-19T19:17:04.079Z,2.22
2023-01-19T19:19:31.057Z,2.60
2023-01-19T19:21:58.167Z,2.40
2023-01-19T19:24:32.587Z,2.42
2023-01-19T19:26:59.481Z,4.62
2023-01-19T19:29:29.646Z,2.62
2023-01-19T19:31:56.615Z,2.37
2023-01-19T19:34:23.398Z,2.35
2023-01-19T19:36:50.417Z,2.62
2023-01-19T19:39:17.320Z,2.47
2023-01-19T19:41:46.729Z,2.50
2023-01-19T19:44:13.446Z,1.98
2023-01-19T19:46:40.132Z,2.60
2023-01-19T19:49:07.718Z,2.78
2023-01-19T19:51:34.987Z,2.72
2023-01-19T19:54:04.644Z,2.50
2023-01-19T19:56:32.279Z,2.80
2023-01-19T19:58:59.725Z,2.67
2023-01-19T20:01:32.281Z,2.78
2023-01-19T20:04:08.599Z,2.55
2023-01-19T20:06:36.142Z,2.62
2023-01-19T20:09:02.858Z,2.87
2023-01-19T20:11:29.619Z,2.80
2023-01-19T20:13:56.282Z,2.55
2023-01-19T20:16:23.843Z,2.83
2023-01-19T20:18:54.613Z,2.55
2023-01-19T20:21:27.388Z,3.10
2023-01-19T20:23:56.491Z,2.80
2023-01-19T20:26:26.428Z,2.62
2023-01-19T20:28:54.632Z,2.83
2023-01-19T20:31:26.125Z,2.97
2023-01-19T20:33:53.706Z,3.15
2023-01-19T20:36:20.707Z,2.70
2023-01-19T20:38:47.739Z,3.05
2023-01-19T20:41:14.474Z,3.00
2023-01-19T20:43:41.768Z,3.05
2023-01-19T20:46:09.264Z,2.90
2023-01-19T20:48:37.000Z,2.90
2023-01-19T20:51:09.512Z,2.90
2023-01-19T20:53:41.094Z,3.03
2023-01-19T20:56:11.644Z,3.25
2023-01-19T20:58:39.258Z,2.92
2023-01-19T21:01:17.598Z,2.70
2023-01-19T21:03:44.903Z,3.12
2023-01-19T21:06:12.257Z,3.20
2023-01-19T21:08:40.536Z,3.22
2023-01-19T21:11:11.025Z,3.20
2023-01-19T21:13:37.705Z,3.35
2023-01-19T21:16:05.384Z,3.17
2023-01-19T21:18:32.888Z,3.53
2023-01-19T21:21:02.772Z,3.03
2023-01-19T21:23:31.008Z,3.22
2023-01-19T21:26:03.096Z,3.42
2023-01-19T21:28:31.771Z,3.37
2023-01-19T21:30:58.426Z,3.10
2023-01-19T21:33:25.237Z,2.92
2023-01-19T21:35:53.816Z,3.70
2023-01-19T21:38:21.491Z,3.30
2023-01-19T21:40:48.370Z,3.35
2023-01-19T21:43:15.286Z,3.65
2023-01-19T21:45:45.913Z,3.00
2023-01-19T21:48:12.788Z,3.33
2023-01-19T21:50:43.086Z,3.33
2023-01-19T21:53:15.483Z,3.30
2023-01-19T21:55:46.424Z,3.30
2023-01-19T21:58:14.396Z,3.42
2023-01-19T22:00:47.715Z,3.53
2023-01-19T22:03:20.649Z,3.22
2023-01-19T22:05:53.160Z,3.22
2023-01-19T22:08:23.273Z,3.10
2023-01-19T22:10:50.172Z,3.25
2023-01-19T22:13:25.980Z,3.60
2023-01-19T22:16:02.733Z,3.10
2023-01-19T22:18:31.186Z,3.35
2023-01-19T22:21:08.897Z,3.53
2023-01-19T22:23:36.319Z,3.50
2023-01-19T22:26:10.491Z,3.70
2023-01-19T22:28:45.121Z,3.40
2023-01-19T22:31:23.257Z,3.15
2023-01-19T22:34:30.938Z,3.45
2023-01-19T22:37:04.112Z,3.40
2023-01-19T22:39:49.634Z,2.97
2023-01-19T22:42:19.533Z,2.90
2023-01-19T22:44:46.326Z,3.37
2023-01-19T22:47:13.175Z,3.30
2023-01-19T22:49:39.814Z,2.83
2023-01-19T22:52:12.188Z,3.28
2023-01-19T22:54:43.594Z,2.80
2023-01-19T22:57:10.374Z,2.80
2023-01-19T22:59:37.433Z,3.08
2023-01-19T23:02:09.715Z,2.80
2023-01-19T23:04:59.471Z,2.80
2023-01-19T23:07:29.720Z,3.08
2023-01-19T23:10:04.704Z,2.75
2023-01-19T23:12:33.622Z,2.95
2023-01-19T23:15:20.036Z,3.10
2023-01-19T23:18:25.656Z,2.70
2023-01-19T23:21:32.595Z,2.60
2023-01-19T23:24:02.701Z,2.95
2023-01-19T23:26:32.559Z,3.00
2023-01-19T23:29:39.134Z,4.12
2023-01-19T23:32:27.104Z,2.85
2023-01-19T23:34:59.669Z,2.90
2023-01-19T23:37:46.204Z,2.33
2023-01-19T23:40:16.662Z,2.62
2023-01-19T23:42:45.938Z,2.78
2023-01-19T23:45:19.672Z,2.55
2023-01-19T23:50:54.504Z,2.87
2023-01-19T23:56:43.254Z,2.53
2023-01-19T23:59:15.863Z,2.80
